createdAt,value
2022-07-31T00:00:43.230Z,18.65
2022-07-31T00:01:45.315Z,18.66
2022-07-31T00:02:47.263Z,18.69
2022-07-31T00:03:49.389Z,18.68
2022-07-31T00:04:51.355Z,18.69
2022-07-31T00:05:53.418Z,18.68
2022-07-31T00:06:55.468Z,18.70
2022-07-31T00:08:01.193Z,18.66
2022-07-31T00:09:03.959Z,18.62
2022-07-31T00:10:06.806Z,18.63
2022-07-31T00:11:11.861Z,18.67
2022-07-31T00:12:14.818Z,18.69
2022-07-31T00:13:16.901Z,18.71
2022-07-31T00:14:18.857Z,18.71
2022-07-31T00:15:21.559Z,18.73
2022-07-31T00:16:24.049Z,18.74
2022-07-31T00:17:26.912Z,18.77
2022-07-31T00:18:28.959Z,18.78
2022-07-31T00:19:30.942Z,18.75
2022-07-31T00:20:32.971Z,18.75
2022-07-31T00:21:35.059Z,18.72
2022-07-31T00:22:37.049Z,18.72
2022-07-31T00:23:38.935Z,18.68
2022-07-31T00:24:40.956Z,18.68
2022-07-31T00:25:42.915Z,18.71
2022-07-31T00:26:44.977Z,18.72
2022-07-31T00:27:47.160Z,18.74
2022-07-31T00:28:49.139Z,18.77
2022-07-31T00:29:51.845Z,18.73
2022-07-31T00:30:53.857Z,18.70
2022-07-31T00:32:00.132Z,18.69
2022-07-31T00:33:03.578Z,18.69
2022-07-31T00:34:05.571Z,18.71
2022-07-31T00:35:07.868Z,18.74
2022-07-31T00:36:10.540Z,18.75
2022-07-31T00:37:12.778Z,18.71
2022-07-31T00:38:30.105Z,18.70
2022-07-31T00:39:32.833Z,18.70
2022-07-31T00:40:34.751Z,18.72
2022-07-31T00:41:44.691Z,18.74
2022-07-31T00:42:46.734Z,18.78
2022-07-31T00:43:48.693Z,18.81
2022-07-31T00:44:52.400Z,18.81
2022-07-31T00:45:59.027Z,18.79
2022-07-31T00:47:01.882Z,18.78
2022-07-31T00:48:04.770Z,18.76
2022-07-31T00:49:12.318Z,18.71
2022-07-31T00:50:14.451Z,18.70
2022-07-31T00:51:16.377Z,18.70
2022-07-31T00:52:18.353Z,18.62
2022-07-31T00:53:20.396Z,18.56
2022-07-31T00:54:22.690Z,18.57
2022-07-31T00:55:25.903Z,18.56
2022-07-31T00:56:27.901Z,18.59
2022-07-31T00:57:29.872Z,18.62
2022-07-31T00:58:31.980Z,18.61
2022-07-31T00:59:34.110Z,18.59
2022-07-31T01:00:36.087Z,18.61
2022-07-31T01:01:38.077Z,18.63
2022-07-31T01:02:46.680Z,18.67
2022-07-31T01:03:49.199Z,18.67
2022-07-31T01:04:50.956Z,18.67
2022-07-31T01:05:52.979Z,18.68
2022-07-31T01:06:55.540Z,18.70
2022-07-31T01:07:57.582Z,18.71
2022-07-31T01:08:59.672Z,18.71
2022-07-31T01:10:05.539Z,18.70
2022-07-31T01:11:16.234Z,18.71
2022-07-31T01:12:38.888Z,18.72
2022-07-31T01:13:44.005Z,18.71
2022-07-31T01:14:52.858Z,18.70
2022-07-31T01:15:55.801Z,18.69
2022-07-31T01:17:00.387Z,18.71
2022-07-31T01:18:02.795Z,18.70
2022-07-31T01:19:37.997Z,18.71
2022-07-31T01:20:47.755Z,18.71
2022-07-31T01:22:33.505Z,18.72
2022-07-31T01:23:50.967Z,18.70
2022-07-31T01:25:06.221Z,18.67
2022-07-31T01:26:24.378Z,18.61
2022-07-31T01:27:30.489Z,18.62
2022-07-31T01:28:56.566Z,18.64
2022-07-31T01:30:03.423Z,18.66
2022-07-31T01:31:26.210Z,18.64
2022-07-31T01:32:41.057Z,18.66
2022-07-31T01:34:27.285Z,18.71
2022-07-31T01:35:35.554Z,18.73
2022-07-31T01:36:42.438Z,18.75
2022-07-31T01:37:48.565Z,18.76
2022-07-31T01:38:53.229Z,18.77
2022-07-31T01:40:10.310Z,18.79
2022-07-31T01:41:15.835Z,18.79
2022-07-31T01:42:20.054Z,18.76
2022-07-31T01:43:23.015Z,18.75
2022-07-31T01:44:27.239Z,18.76
2022-07-31T01:45:30.431Z,18.74
2022-07-31T01:46:37.316Z,18.71
2022-07-31T01:47:43.790Z,18.72
2022-07-31T01:48:46.841Z,18.75
2022-07-31T01:49:50.482Z,18.72
2022-07-31T01:50:53.320Z,18.71
2022-07-31T01:51:56.116Z,18.71
2022-07-31T01:53:07.450Z,18.70
2022-07-31T01:54:10.332Z,18.71
2022-07-31T01:55:13.885Z,18.73
2022-07-31T01:56:17.655Z,18.77
2022-07-31T01:57:20.473Z,18.78
2022-07-31T01:58:24.367Z,18.79
2022-07-31T01:59:26.249Z,18.82
2022-07-31T02:00:34.087Z,18.83
2022-07-31T02:01:38.374Z,18.83
2022-07-31T02:02:43.234Z,18.85
2022-07-31T02:03:45.903Z,18.85
2022-07-31T02:04:53.846Z,18.87
2022-07-31T02:05:56.084Z,18.89
2022-07-31T02:06:58.671Z,18.91
2022-07-31T02:08:01.263Z,18.93
2022-07-31T02:09:03.402Z,18.94
2022-07-31T02:10:05.640Z,18.95
2022-07-31T02:11:08.522Z,18.95
2022-07-31T02:12:14.723Z,18.93
2022-07-31T02:13:18.081Z,18.93
2022-07-31T02:14:21.268Z,18.94
2022-07-31T02:15:24.613Z,18.96
2022-07-31T02:16:27.315Z,18.98
2022-07-31T02:17:29.575Z,18.98
2022-07-31T02:18:31.511Z,18.98
2022-07-31T02:19:35.370Z,18.99
2022-07-31T02:20:40.219Z,18.97
2022-07-31T02:21:42.306Z,18.97
2022-07-31T02:22:44.143Z,18.97
2022-07-31T02:23:45.947Z,18.98
2022-07-31T02:24:47.755Z,18.95
2022-07-31T02:25:49.532Z,18.92
2022-07-31T02:26:51.954Z,18.95
2022-07-31T02:27:58.575Z,18.96
2022-07-31T02:29:01.609Z,18.96
2022-07-31T02:30:04.481Z,18.95
2022-07-31T02:31:10.503Z,18.97
2022-07-31T02:32:12.968Z,18.98
2022-07-31T02:33:18.402Z,18.99
2022-07-31T02:34:20.310Z,19.02
2022-07-31T02:35:31.371Z,19.03
2022-07-31T02:36:34.516Z,19.04
2022-07-31T02:37:37.684Z,19.05
2022-07-31T02:38:40.517Z,19.05
2022-07-31T02:39:43.069Z,19.07
2022-07-31T02:40:45.537Z,19.05
2022-07-31T02:41:47.653Z,19.04
2022-07-31T02:42:50.227Z,19.04
2022-07-31T02:43:52.917Z,19.06
2022-07-31T02:44:55.234Z,19.07
2022-07-31T02:45:57.670Z,19.06
2022-07-31T02:47:02.718Z,19.06
2022-07-31T02:48:04.891Z,19.08
2022-07-31T02:49:07.596Z,19.10
2022-07-31T02:50:09.636Z,19.09
2022-07-31T02:51:11.494Z,19.09
2022-07-31T02:52:15.124Z,19.09
2022-07-31T02:53:17.090Z,19.10
2022-07-31T02:54:19.027Z,19.10
2022-07-31T02:55:20.867Z,19.10
2022-07-31T02:56:23.717Z,19.11
2022-07-31T02:57:27.291Z,19.10
2022-07-31T02:58:29.245Z,19.10
2022-07-31T02:59:31.232Z,19.10
2022-07-31T03:00:33.179Z,19.10
2022-07-31T03:01:36.303Z,19.11
2022-07-31T03:02:38.137Z,19.10
2022-07-31T03:03:40.626Z,19.10
2022-07-31T03:04:42.839Z,19.10
2022-07-31T03:05:44.676Z,19.10
2022-07-31T03:06:48.869Z,19.11
2022-07-31T03:07:50.776Z,19.09
2022-07-31T03:08:52.620Z,19.10
2022-07-31T03:09:54.533Z,19.09
2022-07-31T03:10:57.164Z,19.10
2022-07-31T03:12:04.910Z,19.08
2022-07-31T03:13:07.957Z,19.06
2022-07-31T03:14:10.900Z,19.06
2022-07-31T03:15:17.465Z,19.06
2022-07-31T03:16:19.669Z,19.08
2022-07-31T03:17:21.642Z,19.09
2022-07-31T03:18:24.185Z,19.10
2022-07-31T03:19:26.547Z,19.12
2022-07-31T03:20:29.403Z,19.12
2022-07-31T03:21:31.434Z,19.09
2022-07-31T03:22:33.754Z,19.09
2022-07-31T03:23:38.753Z,19.10
2022-07-31T03:24:40.610Z,19.13
2022-07-31T03:25:43.135Z,19.12
2022-07-31T03:26:45.244Z,19.13
2022-07-31T03:27:52.722Z,19.13
2022-07-31T03:28:59.943Z,19.15
2022-07-31T03:30:01.902Z,19.14
2022-07-31T03:31:03.938Z,19.15
2022-07-31T03:32:06.756Z,19.16
2022-07-31T03:33:08.719Z,19.16
2022-07-31T03:34:12.089Z,19.17
2022-07-31T03:35:14.019Z,19.17
2022-07-31T03:36:15.921Z,19.18
2022-07-31T03:37:17.786Z,19.18
2022-07-31T03:38:39.165Z,19.17
2022-07-31T03:39:42.149Z,19.17
2022-07-31T03:40:43.959Z,19.15
2022-07-31T03:41:46.631Z,19.15
2022-07-31T03:42:49.383Z,19.13
2022-07-31T03:43:51.240Z,19.14
2022-07-31T03:44:53.186Z,19.12
2022-07-31T03:45:55.195Z,19.14
2022-07-31T03:46:57.057Z,19.15
2022-07-31T03:47:58.997Z,19.14
2022-07-31T03:49:01.176Z,19.15
2022-07-31T03:50:04.107Z,19.14
2022-07-31T03:51:06.734Z,19.15
2022-07-31T03:52:11.994Z,19.16
2022-07-31T03:53:14.680Z,19.17
2022-07-31T03:54:16.899Z,19.15
2022-07-31T03:55:18.708Z,19.15
2022-07-31T03:56:21.423Z,19.15
2022-07-31T03:57:28.729Z,19.15
2022-07-31T03:58:33.244Z,19.16
2022-07-31T03:59:40.493Z,19.14
2022-07-31T04:00:47.731Z,19.15
2022-07-31T04:02:10.268Z,19.16
2022-07-31T04:03:13.459Z,19.16
2022-07-31T04:04:17.816Z,19.16
2022-07-31T04:05:20.159Z,19.16
2022-07-31T04:06:21.949Z,19.17
2022-07-31T04:07:24.285Z,19.19
2022-07-31T04:08:26.114Z,19.21
2022-07-31T04:09:27.911Z,19.22
2022-07-31T04:10:29.785Z,19.22
2022-07-31T04:11:31.545Z,19.24
2022-07-31T04:12:33.373Z,19.25
2022-07-31T04:13:37.271Z,19.26
2022-07-31T04:14:39.105Z,19.27
2022-07-31T04:15:40.976Z,19.28
2022-07-31T04:16:42.822Z,19.27
2022-07-31T04:17:44.603Z,19.28
2022-07-31T04:18:47.797Z,19.28
2022-07-31T04:19:52.822Z,19.28
2022-07-31T04:20:55.145Z,19.28
2022-07-31T04:21:58.181Z,19.27
2022-07-31T04:22:59.982Z,19.26
2022-07-31T04:24:01.888Z,19.26
2022-07-31T04:25:04.257Z,19.27
2022-07-31T04:26:06.207Z,19.27
2022-07-31T04:27:12.703Z,19.26
2022-07-31T04:28:14.864Z,19.28
2022-07-31T04:29:17.181Z,19.28
2022-07-31T04:30:19.024Z,19.26
2022-07-31T04:31:20.924Z,19.24
2022-07-31T04:32:22.722Z,19.26
2022-07-31T04:33:27.193Z,19.26
2022-07-31T04:34:30.596Z,19.27
2022-07-31T04:35:32.452Z,19.27
2022-07-31T04:36:34.319Z,19.27
2022-07-31T04:37:36.102Z,19.28
2022-07-31T04:38:37.933Z,19.28
2022-07-31T04:39:39.828Z,19.26
2022-07-31T04:40:41.804Z,19.26
2022-07-31T04:41:44.462Z,19.26
2022-07-31T04:42:46.257Z,19.26
2022-07-31T04:43:48.621Z,19.26
2022-07-31T04:44:52.342Z,19.26
2022-07-31T04:45:58.000Z,19.25
2022-07-31T04:47:00.840Z,19.24
2022-07-31T04:48:02.641Z,19.24
2022-07-31T04:49:04.716Z,19.23
2022-07-31T04:50:06.762Z,19.22
2022-07-31T04:51:08.586Z,19.17
2022-07-31T04:52:15.417Z,19.16
2022-07-31T04:53:17.186Z,19.13
2022-07-31T04:54:19.050Z,19.11
2022-07-31T04:55:21.320Z,19.14
2022-07-31T04:56:42.322Z,19.14
2022-07-31T04:57:45.585Z,19.15
2022-07-31T04:58:47.425Z,19.17
2022-07-31T04:59:59.050Z,19.17
2022-07-31T05:01:02.899Z,19.15
2022-07-31T05:02:04.936Z,19.17
2022-07-31T05:03:07.014Z,19.19
2022-07-31T05:04:09.769Z,19.19
2022-07-31T05:05:11.580Z,19.23
2022-07-31T05:06:14.573Z,19.24
2022-07-31T05:07:16.473Z,19.27
2022-07-31T05:08:18.262Z,19.28
2022-07-31T05:09:25.558Z,19.29
2022-07-31T05:10:47.901Z,19.30
2022-07-31T05:11:50.325Z,19.32
2022-07-31T05:12:52.142Z,19.33
2022-07-31T05:13:55.311Z,19.34
2022-07-31T05:14:57.053Z,19.34
2022-07-31T05:15:58.837Z,19.35
2022-07-31T05:17:00.670Z,19.35
2022-07-31T05:18:02.570Z,19.32
2022-07-31T05:19:05.396Z,19.31
2022-07-31T05:20:15.421Z,19.32
2022-07-31T05:21:17.299Z,19.31
2022-07-31T05:22:19.111Z,19.34
2022-07-31T05:23:21.085Z,19.35
2022-07-31T05:24:33.407Z,19.33
2022-07-31T05:25:35.866Z,19.31
2022-07-31T05:26:39.023Z,19.32
2022-07-31T05:27:41.362Z,19.33
2022-07-31T05:28:43.858Z,19.33
2022-07-31T05:29:48.579Z,19.33
2022-07-31T05:30:50.371Z,19.32
2022-07-31T05:32:00.204Z,19.31
2022-07-31T05:33:12.351Z,19.34
2022-07-31T05:34:15.851Z,19.36
2022-07-31T05:35:17.711Z,19.37
2022-07-31T05:36:20.026Z,19.36
2022-07-31T05:37:21.783Z,19.37
2022-07-31T05:38:23.661Z,19.37
2022-07-31T05:39:25.574Z,19.38
2022-07-31T05:40:27.478Z,19.41
2022-07-31T05:41:31.021Z,19.41
2022-07-31T05:42:32.922Z,19.41
2022-07-31T05:43:34.710Z,19.40
2022-07-31T05:44:36.480Z,19.39
2022-07-31T05:45:39.327Z,19.39
2022-07-31T05:46:41.332Z,19.42
2022-07-31T05:47:43.061Z,19.43
2022-07-31T05:48:45.347Z,19.45
2022-07-31T05:49:47.118Z,19.45
2022-07-31T05:50:49.894Z,19.46
2022-07-31T05:51:54.598Z,19.47
2022-07-31T05:52:56.423Z,19.50
2022-07-31T05:53:58.319Z,19.49
2022-07-31T05:55:00.151Z,19.45
2022-07-31T05:56:02.074Z,19.44
2022-07-31T05:57:04.105Z,19.43
2022-07-31T05:58:06.290Z,19.44
2022-07-31T05:59:08.146Z,19.47
2022-07-31T06:00:10.225Z,19.47
2022-07-31T06:01:13.501Z,19.48
2022-07-31T06:02:16.311Z,19.51
2022-07-31T06:03:23.487Z,19.53
2022-07-31T06:04:25.304Z,19.55
2022-07-31T06:05:28.388Z,19.57
2022-07-31T06:06:30.245Z,19.60
2022-07-31T06:07:32.039Z,19.62
2022-07-31T06:08:35.592Z,19.62
2022-07-31T06:09:37.502Z,19.64
2022-07-31T06:10:39.290Z,19.65
2022-07-31T06:11:41.178Z,19.68
2022-07-31T06:12:43.025Z,19.68
2022-07-31T06:13:44.907Z,19.67
2022-07-31T06:14:46.789Z,19.69
2022-07-31T06:15:49.382Z,19.71
2022-07-31T06:16:53.483Z,19.73
2022-07-31T06:17:55.500Z,19.74
2022-07-31T06:18:57.340Z,19.75
2022-07-31T06:19:59.160Z,19.78
2022-07-31T06:21:01.007Z,19.79
2022-07-31T06:22:03.047Z,19.78
2022-07-31T06:23:23.082Z,19.75
2022-07-31T06:24:26.881Z,19.73
2022-07-31T06:25:31.965Z,19.72
2022-07-31T06:26:40.824Z,19.71
2022-07-31T06:27:44.083Z,19.73
2022-07-31T06:28:50.540Z,19.74
2022-07-31T06:29:52.449Z,19.77
2022-07-31T06:30:54.264Z,19.81
2022-07-31T06:31:56.195Z,19.83
2022-07-31T06:32:58.019Z,19.85
2022-07-31T06:33:59.870Z,19.87
2022-07-31T06:35:02.260Z,19.89
2022-07-31T06:36:04.114Z,19.92
2022-07-31T06:37:05.909Z,19.94
2022-07-31T06:38:07.786Z,19.96
2022-07-31T06:39:09.630Z,19.97
2022-07-31T06:40:12.094Z,19.98
2022-07-31T06:41:33.824Z,19.99
2022-07-31T06:42:35.624Z,20.01
2022-07-31T06:43:37.575Z,19.99
2022-07-31T06:44:43.213Z,20.01
2022-07-31T06:45:51.914Z,20.03
2022-07-31T06:46:54.285Z,20.07
2022-07-31T06:47:56.178Z,20.09
2022-07-31T06:48:58.150Z,20.10
2022-07-31T06:50:00.002Z,20.12
2022-07-31T06:51:28.985Z,20.12
2022-07-31T06:52:23.639Z,20.11
2022-07-31T06:53:26.987Z,20.12
2022-07-31T06:54:28.838Z,20.13
2022-07-31T06:55:30.598Z,20.15
2022-07-31T06:56:33.012Z,20.16
2022-07-31T06:57:35.312Z,20.17
2022-07-31T06:58:37.130Z,20.16
2022-07-31T06:59:40.698Z,20.13
2022-07-31T07:00:42.662Z,20.14
2022-07-31T07:01:44.560Z,20.15
2022-07-31T07:02:46.425Z,20.16
2022-07-31T07:03:48.301Z,20.15
2022-07-31T07:05:04.814Z,20.16
2022-07-31T07:06:08.207Z,20.18
2022-07-31T07:07:10.011Z,20.19
2022-07-31T07:08:11.859Z,20.18
2022-07-31T07:09:13.669Z,20.19
2022-07-31T07:10:15.574Z,20.21
2022-07-31T07:11:17.521Z,20.20
2022-07-31T07:12:19.229Z,20.18
2022-07-31T07:13:24.288Z,20.17
2022-07-31T07:14:46.014Z,20.21
2022-07-31T07:15:47.844Z,20.23
2022-07-31T07:16:49.683Z,20.25
2022-07-31T07:17:51.992Z,20.28
2022-07-31T07:18:53.804Z,20.29
2022-07-31T07:19:57.997Z,20.29
2022-07-31T07:20:59.859Z,20.27
2022-07-31T07:22:02.022Z,20.25
2022-07-31T07:23:04.125Z,20.27
2022-07-31T07:24:06.125Z,20.28
2022-07-31T07:25:08.483Z,20.30
2022-07-31T07:26:10.546Z,20.33
2022-07-31T07:27:12.392Z,20.34
2022-07-31T07:28:30.771Z,20.36
2022-07-31T07:29:33.297Z,20.36
2022-07-31T07:30:35.232Z,20.36
2022-07-31T07:31:37.600Z,20.33
2022-07-31T07:32:39.747Z,20.34
2022-07-31T07:33:42.884Z,20.36
2022-07-31T07:34:44.920Z,20.37
2022-07-31T07:35:47.126Z,20.39
2022-07-31T07:36:49.053Z,20.39
2022-07-31T07:37:50.900Z,20.38
2022-07-31T07:38:55.195Z,20.39
2022-07-31T07:39:57.720Z,20.39
2022-07-31T07:41:05.473Z,20.41
2022-07-31T07:42:07.574Z,20.43
2022-07-31T07:43:09.598Z,20.45
2022-07-31T07:44:11.418Z,20.46
2022-07-31T07:45:13.955Z,20.44
2022-07-31T07:46:15.787Z,20.44
2022-07-31T07:47:18.150Z,20.43
2022-07-31T07:48:19.954Z,20.43
2022-07-31T07:49:22.291Z,20.44
2022-07-31T07:50:26.861Z,20.44
2022-07-31T07:51:31.386Z,20.45
2022-07-31T07:52:33.874Z,20.47
2022-07-31T07:53:37.133Z,20.48
2022-07-31T07:54:39.160Z,20.48
2022-07-31T07:55:40.930Z,20.48
2022-07-31T07:56:45.414Z,20.50
2022-07-31T07:57:47.358Z,20.52
2022-07-31T07:58:49.452Z,20.53
2022-07-31T07:59:51.349Z,20.53
2022-07-31T08:00:53.349Z,20.54
2022-07-31T08:01:55.281Z,20.54
2022-07-31T08:03:46.823Z,20.55
2022-07-31T08:04:18.950Z,20.55
2022-07-31T08:05:20.792Z,20.53
2022-07-31T08:06:23.650Z,20.54
2022-07-31T08:07:42.679Z,20.56
2022-07-31T08:08:44.879Z,20.60
2022-07-31T08:09:46.690Z,20.61
2022-07-31T08:10:48.698Z,20.60
2022-07-31T08:11:50.720Z,20.60
2022-07-31T08:12:55.072Z,20.62
2022-07-31T08:13:57.354Z,20.63
2022-07-31T08:14:59.264Z,20.64
2022-07-31T08:16:01.119Z,20.66
2022-07-31T08:17:02.918Z,20.68
2022-07-31T08:18:04.789Z,20.69
2022-07-31T08:19:06.637Z,20.71
2022-07-31T08:20:08.859Z,20.73
2022-07-31T08:21:10.740Z,20.76
2022-07-31T08:22:12.895Z,20.75
2022-07-31T08:23:18.159Z,20.78
2022-07-31T08:24:20.214Z,20.80
2022-07-31T08:25:22.135Z,20.82
2022-07-31T08:26:23.943Z,20.90
2022-07-31T08:27:40.377Z,20.94
2022-07-31T08:28:50.014Z,21.01
2022-07-31T08:29:53.606Z,21.08
2022-07-31T08:30:58.673Z,21.13
2022-07-31T08:32:00.681Z,21.15
2022-07-31T08:33:03.058Z,21.20
2022-07-31T08:34:05.352Z,21.27
2022-07-31T08:35:07.507Z,21.32
2022-07-31T08:36:09.622Z,21.38
2022-07-31T08:38:01.304Z,21.41
2022-07-31T08:38:33.228Z,21.42
2022-07-31T08:39:35.655Z,21.41
2022-07-31T08:40:43.064Z,21.45
2022-07-31T08:41:46.034Z,21.50
2022-07-31T08:42:48.067Z,21.55
2022-07-31T08:44:02.477Z,21.54
2022-07-31T08:45:06.829Z,21.51
2022-07-31T08:46:09.466Z,21.53
2022-07-31T08:47:12.587Z,21.57
2022-07-31T08:48:14.861Z,21.59
2022-07-31T08:49:17.612Z,21.62
2022-07-31T08:50:19.714Z,21.68
2022-07-31T08:51:23.043Z,21.73
2022-07-31T08:52:25.787Z,21.78
2022-07-31T08:53:29.569Z,21.78
2022-07-31T08:54:32.590Z,21.76
2022-07-31T08:55:55.592Z,21.73
2022-07-31T08:56:56.357Z,21.80
2022-07-31T08:57:58.241Z,21.86
2022-07-31T08:59:00.083Z,21.88
2022-07-31T09:00:03.257Z,21.88
2022-07-31T09:01:05.255Z,21.91
2022-07-31T09:02:07.614Z,21.93
2022-07-31T09:03:09.500Z,21.99
2022-07-31T09:04:11.713Z,22.05
2022-07-31T09:05:13.529Z,22.12
2022-07-31T09:06:15.449Z,22.20
2022-07-31T09:07:17.283Z,22.25
2022-07-31T09:08:19.148Z,22.24
2022-07-31T09:09:21.272Z,22.23
2022-07-31T09:10:25.116Z,22.23
2022-07-31T09:11:27.014Z,22.23
2022-07-31T09:12:33.227Z,22.23
2022-07-31T09:13:36.269Z,22.25
2022-07-31T09:14:38.318Z,22.28
2022-07-31T09:15:40.547Z,22.28
2022-07-31T09:16:50.635Z,22.28
2022-07-31T09:17:54.108Z,22.30
2022-07-31T09:18:57.399Z,22.31
2022-07-31T09:20:01.669Z,22.36
2022-07-31T09:22:09.903Z,22.41
2022-07-31T09:23:13.130Z,22.38
2022-07-31T09:24:26.062Z,22.37
2022-07-31T09:25:27.991Z,22.42
2022-07-31T09:26:33.660Z,22.45
2022-07-31T09:27:35.675Z,22.52
2022-07-31T09:28:38.829Z,22.57
2022-07-31T09:29:41.600Z,22.58
2022-07-31T09:30:55.742Z,22.55
2022-07-31T09:32:07.466Z,22.52
2022-07-31T09:33:13.158Z,22.54
2022-07-31T09:34:14.941Z,22.54
2022-07-31T09:35:16.786Z,22.56
2022-07-31T09:36:22.533Z,22.64
2022-07-31T09:37:26.390Z,22.68
2022-07-31T09:38:38.723Z,22.67
2022-07-31T09:39:51.890Z,22.66
2022-07-31T09:40:57.314Z,22.66
2022-07-31T09:42:01.770Z,22.68
2022-07-31T09:43:25.910Z,22.78
2022-07-31T09:44:38.089Z,22.75
2022-07-31T09:45:48.451Z,22.79
2022-07-31T09:46:51.634Z,22.89
2022-07-31T09:48:03.254Z,22.99
2022-07-31T09:49:05.147Z,22.97
2022-07-31T09:50:07.724Z,22.94
2022-07-31T09:51:09.627Z,22.90
2022-07-31T09:52:19.060Z,22.94
2022-07-31T09:53:21.043Z,22.93
2022-07-31T09:54:26.696Z,22.88
2022-07-31T09:55:29.097Z,22.84
2022-07-31T09:56:31.489Z,22.90
2022-07-31T09:57:34.779Z,22.96
2022-07-31T09:58:36.617Z,23.06
2022-07-31T09:59:38.742Z,23.09
2022-07-31T10:00:41.224Z,23.10
2022-07-31T10:01:44.041Z,23.17
2022-07-31T10:02:45.934Z,23.17
2022-07-31T10:03:50.645Z,23.12
2022-07-31T10:04:53.887Z,23.09
2022-07-31T10:05:56.838Z,23.14
2022-07-31T10:07:00.832Z,23.24
2022-07-31T10:08:02.770Z,23.25
2022-07-31T10:09:05.098Z,23.24
2022-07-31T10:10:08.325Z,23.21
2022-07-31T10:11:16.629Z,23.21
2022-07-31T10:12:20.069Z,23.28
2022-07-31T10:13:23.371Z,23.36
2022-07-31T10:14:28.776Z,23.47
2022-07-31T10:15:33.399Z,23.57
2022-07-31T10:16:36.658Z,23.55
2022-07-31T10:17:41.642Z,23.51
2022-07-31T10:18:46.262Z,23.48
2022-07-31T10:19:48.489Z,23.45
2022-07-31T10:20:53.363Z,23.41
2022-07-31T10:21:57.044Z,23.42
2022-07-31T10:23:05.178Z,23.40
2022-07-31T10:24:07.744Z,23.47
2022-07-31T10:25:12.955Z,23.61
2022-07-31T10:26:15.227Z,23.79
2022-07-31T10:27:19.217Z,23.76
2022-07-31T10:28:21.672Z,23.71
2022-07-31T10:29:23.486Z,23.73
2022-07-31T10:30:28.020Z,23.69
2022-07-31T10:31:31.605Z,23.65
2022-07-31T10:32:34.015Z,23.70
2022-07-31T10:33:44.741Z,23.79
2022-07-31T10:34:47.302Z,23.84
2022-07-31T10:36:27.821Z,23.79
2022-07-31T10:37:35.359Z,23.74
2022-07-31T10:38:41.965Z,23.81
2022-07-31T10:39:43.764Z,23.78
2022-07-31T10:40:49.722Z,23.74
2022-07-31T10:42:06.696Z,23.71
2022-07-31T10:43:17.361Z,23.68
2022-07-31T10:44:23.004Z,23.63
2022-07-31T10:45:24.922Z,23.61
2022-07-31T10:46:27.692Z,23.57
2022-07-31T10:47:29.530Z,23.51
2022-07-31T10:48:31.432Z,23.49
2022-07-31T10:49:43.187Z,23.46
2022-07-31T10:50:45.570Z,23.46
2022-07-31T10:51:51.463Z,23.58
2022-07-31T10:52:58.626Z,23.57
2022-07-31T10:54:03.386Z,23.52
2022-07-31T10:55:35.850Z,23.50
2022-07-31T10:56:42.884Z,23.46
2022-07-31T10:57:55.232Z,23.45
2022-07-31T10:58:59.455Z,23.44
2022-07-31T11:00:12.287Z,23.39
2022-07-31T11:01:17.399Z,23.38
2022-07-31T11:02:33.163Z,23.38
2022-07-31T11:03:48.861Z,23.42
2022-07-31T11:04:52.001Z,23.61
2022-07-31T11:06:01.982Z,23.85
2022-07-31T11:07:14.688Z,24.10
2022-07-31T11:08:16.607Z,24.28
2022-07-31T11:09:25.338Z,24.45
2022-07-31T11:10:27.200Z,24.64
2022-07-31T11:11:33.231Z,24.79
2022-07-31T11:12:35.070Z,24.96
2022-07-31T11:13:55.572Z,25.10
2022-07-31T11:14:58.519Z,25.23
2022-07-31T11:16:04.678Z,25.34
2022-07-31T11:17:07.422Z,25.47
2022-07-31T11:18:28.666Z,25.61
2022-07-31T11:19:41.337Z,25.63
2022-07-31T11:20:47.027Z,25.63
2022-07-31T11:21:48.881Z,25.61
2022-07-31T11:23:01.609Z,25.50
2022-07-31T11:24:16.566Z,25.32
2022-07-31T11:25:19.146Z,25.36
2022-07-31T11:26:33.714Z,25.22
2022-07-31T11:27:42.610Z,25.05
2022-07-31T11:28:45.074Z,24.91
2022-07-31T11:29:59.265Z,24.73
2022-07-31T11:31:06.419Z,24.58
2022-07-31T11:32:25.156Z,24.67
2022-07-31T11:33:42.073Z,24.63
2022-07-31T11:34:45.814Z,24.63
2022-07-31T11:35:47.616Z,24.66
2022-07-31T11:36:51.649Z,24.64
2022-07-31T11:37:58.024Z,24.67
2022-07-31T11:39:00.911Z,24.83
2022-07-31T11:40:06.729Z,24.98
2022-07-31T11:41:09.471Z,25.14
2022-07-31T11:42:11.632Z,25.29
2022-07-31T11:43:29.247Z,25.34
2022-07-31T11:44:31.038Z,25.41
2022-07-31T11:45:33.434Z,25.51
2022-07-31T11:46:38.143Z,25.43
2022-07-31T11:48:11.168Z,25.35
2022-07-31T11:49:03.166Z,25.22
2022-07-31T11:50:05.210Z,25.10
2022-07-31T11:51:07.081Z,24.99
2022-07-31T11:52:10.123Z,24.88
2022-07-31T11:53:39.460Z,24.80
2022-07-31T11:54:42.512Z,24.76
2022-07-31T11:55:58.358Z,24.74
2022-07-31T11:57:00.306Z,24.69
2022-07-31T11:58:02.148Z,24.69
2022-07-31T11:59:04.425Z,24.68
2022-07-31T12:00:26.701Z,24.65
2022-07-31T12:01:31.319Z,24.61
2022-07-31T12:02:33.363Z,24.58
2022-07-31T12:03:39.300Z,24.55
2022-07-31T12:04:41.148Z,24.51
2022-07-31T12:05:49.974Z,24.49
2022-07-31T12:06:56.287Z,24.46
2022-07-31T12:07:58.244Z,24.44
2022-07-31T12:09:00.201Z,24.39
2022-07-31T12:10:03.761Z,24.31
2022-07-31T12:11:08.179Z,24.25
2022-07-31T12:12:12.145Z,24.22
2022-07-31T12:13:18.580Z,24.17
2022-07-31T12:14:33.976Z,24.16
2022-07-31T12:15:35.979Z,24.16
2022-07-31T12:16:41.842Z,24.17
2022-07-31T12:17:43.694Z,24.19
2022-07-31T12:18:54.147Z,24.19
2022-07-31T12:20:06.202Z,24.21
2022-07-31T12:21:09.440Z,24.17
2022-07-31T12:22:15.019Z,24.19
2022-07-31T12:23:40.667Z,24.19
2022-07-31T12:24:39.761Z,24.21
2022-07-31T12:25:46.281Z,24.20
2022-07-31T12:26:52.333Z,24.21
2022-07-31T12:27:54.856Z,24.18
2022-07-31T12:28:57.571Z,24.17
2022-07-31T12:29:59.379Z,24.16
2022-07-31T12:31:01.306Z,24.16
2022-07-31T12:32:03.864Z,24.17
2022-07-31T12:33:07.022Z,24.20
2022-07-31T12:34:08.805Z,24.21
2022-07-31T12:35:10.691Z,24.21
2022-07-31T12:36:16.426Z,24.19
2022-07-31T12:37:19.636Z,24.16
2022-07-31T12:38:45.076Z,24.13
2022-07-31T12:39:59.250Z,24.10
2022-07-31T12:41:03.624Z,24.07
2022-07-31T12:42:06.568Z,24.04
2022-07-31T12:43:08.417Z,24.03
2022-07-31T12:44:14.625Z,24.02
2022-07-31T12:45:18.211Z,23.99
2022-07-31T12:46:36.311Z,23.97
2022-07-31T12:47:38.291Z,23.94
2022-07-31T12:48:44.401Z,23.89
2022-07-31T12:49:48.017Z,23.87
2022-07-31T12:50:50.298Z,23.86
2022-07-31T12:51:52.284Z,23.82
2022-07-31T12:52:54.576Z,23.82
2022-07-31T12:53:56.511Z,23.81
2022-07-31T12:54:58.785Z,23.79
2022-07-31T12:56:00.639Z,23.78
2022-07-31T12:57:03.985Z,23.76
2022-07-31T12:58:06.028Z,23.76
2022-07-31T12:59:08.590Z,23.81
2022-07-31T13:00:10.958Z,23.84
2022-07-31T13:01:13.755Z,23.86
2022-07-31T13:02:15.700Z,23.88
2022-07-31T13:03:17.531Z,23.90
2022-07-31T13:04:19.751Z,23.93
2022-07-31T13:05:22.464Z,23.95
2022-07-31T13:06:24.725Z,23.94
2022-07-31T13:07:27.923Z,23.93
2022-07-31T13:08:29.777Z,23.93
2022-07-31T13:09:34.947Z,23.93
2022-07-31T13:10:36.729Z,23.91
2022-07-31T13:11:45.626Z,23.86
2022-07-31T13:12:51.774Z,23.82
2022-07-31T13:13:57.100Z,23.78
2022-07-31T13:14:58.864Z,23.77
2022-07-31T13:16:00.850Z,23.75
2022-07-31T13:17:02.873Z,23.73
2022-07-31T13:18:05.520Z,23.72
2022-07-31T13:19:08.216Z,23.68
2022-07-31T13:20:10.309Z,23.65
2022-07-31T13:21:18.559Z,23.62
2022-07-31T13:22:20.358Z,23.61
2022-07-31T13:23:22.250Z,23.58
2022-07-31T13:24:24.299Z,23.56
2022-07-31T13:25:27.054Z,23.53
2022-07-31T13:26:29.295Z,23.50
2022-07-31T13:27:31.837Z,23.48
2022-07-31T13:28:33.729Z,23.43
2022-07-31T13:29:35.556Z,23.39
2022-07-31T13:30:37.379Z,23.38
2022-07-31T13:31:39.497Z,23.35
2022-07-31T13:32:41.311Z,23.35
2022-07-31T13:33:43.193Z,23.34
2022-07-31T13:34:45.062Z,23.33
2022-07-31T13:35:46.865Z,23.32
2022-07-31T13:36:48.694Z,23.31
2022-07-31T13:37:50.516Z,23.28
2022-07-31T13:38:52.653Z,23.27
2022-07-31T13:39:54.504Z,23.26
2022-07-31T13:41:14.844Z,23.24
2022-07-31T13:42:16.720Z,23.24
2022-07-31T13:43:20.377Z,23.26
2022-07-31T13:44:22.378Z,23.25
2022-07-31T13:45:24.188Z,23.27
2022-07-31T13:46:26.411Z,23.30
2022-07-31T13:47:28.294Z,23.31
2022-07-31T13:48:51.681Z,23.34
2022-07-31T13:49:54.061Z,23.39
2022-07-31T13:50:55.828Z,23.40
2022-07-31T13:51:58.135Z,23.38
2022-07-31T13:53:00.023Z,23.41